sensor_id;sensor_type;location;lat;lon;timestamp;P1;durP1;ratioP1;P2;durP2;ratioP2
5077;SDS011;2557;51.390;7.494;2022-12-18T00:02:16;5.78;;;3.53;;
5077;SDS011;2557;51.390;7.494;2022-12-18T00:04:42;4.70;;;3.58;;
5077;SDS011;2557;51.390;7.494;2022-12-18T00:07:08;11.23;;;4.10;;
5077;SDS011;2557;51.390;7.494;2022-12-18T00:09:35;4.88;;;3.47;;
5077;SDS011;2557;51.390;7.494;2022-12-18T00:12:01;5.10;;;3.35;;
5077;SDS011;2557;51.390;7.494;2022-12-18T00:14:27;11.07;;;4.15;;
5077;SDS011;2557;51.390;7.494;2022-12-18T00:16:53;7.63;;;4.18;;
5077;SDS011;2557;51.390;7.494;2022-12-18T00:19:19;4.78;;;3.65;;
5077;SDS011;2557;51.390;7.494;2022-12-18T00:21:45;5.22;;;3.38;;
5077;SDS011;2557;51.390;7.494;2022-12-18T00:24:11;6.95;;;3.70;;
5077;SDS011;2557;51.390;7.494;2022-12-18T00:26:38;9.65;;;4.00;;
5077;SDS011;2557;51.390;7.494;2022-12-18T00:29:06;5.70;;;3.63;;
5077;SDS011;2557;51.390;7.494;2022-12-18T00:31:32;5.45;;;3.55;;
5077;SDS011;2557;51.390;7.494;2022-12-18T00:33:58;5.80;;;3.30;;
5077;SDS011;2557;51.390;7.494;2022-12-18T00:36:25;7.90;;;4.72;;
5077;SDS011;2557;51.390;7.494;2022-12-18T00:38:52;4.55;;;3.80;;
5077;SDS011;2557;51.390;7.494;2022-12-18T00:41:19;5.47;;;3.50;;
5077;SDS011;2557;51.390;7.494;2022-12-18T00:44:03;4.75;;;3.05;;
5077;SDS011;2557;51.390;7.494;2022-12-18T00:46:29;8.50;;;4.05;;
5077;SDS011;2557;51.390;7.494;2022-12-18T00:48:55;7.03;;;4.20;;
5077;SDS011;2557;51.390;7.494;2022-12-18T00:51:22;9.02;;;3.85;;
5077;SDS011;2557;51.390;7.494;2022-12-18T00:53:48;10.70;;;3.47;;
5077;SDS011;2557;51.390;7.494;2022-12-18T00:56:14;8.10;;;3.75;;
5077;SDS011;2557;51.390;7.494;2022-12-18T00:58:40;4.28;;;3.55;;
5077;SDS011;2557;51.390;7.494;2022-12-18T01:01:06;4.93;;;4.35;;
5077;SDS011;2557;51.390;7.494;2022-12-18T01:03:32;5.03;;;3.83;;
5077;SDS011;2557;51.390;7.494;2022-12-18T01:05:58;5.13;;;4.38;;
5077;SDS011;2557;51.390;7.494;2022-12-18T01:08:24;6.05;;;3.45;;
5077;SDS011;2557;51.390;7.494;2022-12-18T01:10:50;7.38;;;3.40;;
5077;SDS011;2557;51.390;7.494;2022-12-18T01:13:16;5.25;;;4.05;;
5077;SDS011;2557;51.390;7.494;2022-12-18T01:15:49;5.32;;;3.30;;
5077;SDS011;2557;51.390;7.494;2022-12-18T01:18:15;6.97;;;3.63;;
5077;SDS011;2557;51.390;7.494;2022-12-18T01:20:41;7.43;;;3.67;;
5077;SDS011;2557;51.390;7.494;2022-12-18T01:23:07;3.95;;;2.67;;
5077;SDS011;2557;51.390;7.494;2022-12-18T01:25:33;5.88;;;4.30;;
5077;SDS011;2557;51.390;7.494;2022-12-18T01:28:01;5.93;;;4.60;;
5077;SDS011;2557;51.390;7.494;2022-12-18T01:30:27;4.35;;;3.22;;
5077;SDS011;2557;51.390;7.494;2022-12-18T01:32:53;4.90;;;3.10;;
5077;SDS011;2557;51.390;7.494;2022-12-18T01:35:19;3.78;;;3.47;;
5077;SDS011;2557;51.390;7.494;2022-12-18T01:37:45;6.75;;;3.88;;
5077;SDS011;2557;51.390;7.494;2022-12-18T01:40:11;9.98;;;4.55;;
5077;SDS011;2557;51.390;7.494;2022-12-18T01:42:38;6.75;;;4.00;;
5077;SDS011;2557;51.390;7.494;2022-12-18T01:45:23;12.52;;;4.82;;
5077;SDS011;2557;51.390;7.494;2022-12-18T01:47:50;8.23;;;3.60;;
5077;SDS011;2557;51.390;7.494;2022-12-18T01:53:01;6.72;;;4.43;;
5077;SDS011;2557;51.390;7.494;2022-12-18T01:55:29;6.38;;;3.88;;
5077;SDS011;2557;51.390;7.494;2022-12-18T01:57:57;8.93;;;4.68;;
5077;SDS011;2557;51.390;7.494;2022-12-18T02:00:24;5.82;;;3.42;;
5077;SDS011;2557;51.390;7.494;2022-12-18T02:02:51;6.85;;;3.10;;
5077;SDS011;2557;51.390;7.494;2022-12-18T02:05:18;8.13;;;4.53;;
5077;SDS011;2557;51.390;7.494;2022-12-18T02:07:52;6.63;;;4.03;;
5077;SDS011;2557;51.390;7.494;2022-12-18T02:13:30;4.50;;;3.27;;
5077;SDS011;2557;51.390;7.494;2022-12-18T02:15:38;5.55;;;3.75;;
5077;SDS011;2557;51.390;7.494;2022-12-18T02:18:14;4.10;;;3.35;;
5077;SDS011;2557;51.390;7.494;2022-12-18T02:25:58;5.40;;;3.27;;
5077;SDS011;2557;51.390;7.494;2022-12-18T02:28:28;6.65;;;4.20;;
5077;SDS011;2557;51.390;7.494;2022-12-18T02:30:56;7.15;;;4.00;;
5077;SDS011;2557;51.390;7.494;2022-12-18T02:33:23;7.43;;;3.30;;
5077;SDS011;2557;51.390;7.494;2022-12-18T02:35:50;4.82;;;3.55;;
5077;SDS011;2557;51.390;7.494;2022-12-18T02:38:17;4.55;;;3.70;;
5077;SDS011;2557;51.390;7.494;2022-12-18T02:40:43;4.13;;;3.22;;
5077;SDS011;2557;51.390;7.494;2022-12-18T02:43:11;11.27;;;4.25;;
5077;SDS011;2557;51.390;7.494;2022-12-18T02:45:50;4.50;;;3.75;;
5077;SDS011;2557;51.390;7.494;2022-12-18T02:48:18;4.43;;;3.50;;
5077;SDS011;2557;51.390;7.494;2022-12-18T02:50:48;5.32;;;3.67;;
5077;SDS011;2557;51.390;7.494;2022-12-18T02:53:21;6.28;;;3.40;;
5077;SDS011;2557;51.390;7.494;2022-12-18T02:56:04;5.85;;;3.50;;
5077;SDS011;2557;51.390;7.494;2022-12-18T03:01:30;5.50;;;4.13;;
5077;SDS011;2557;51.390;7.494;2022-12-18T03:04:01;8.60;;;4.38;;
5077;SDS011;2557;51.390;7.494;2022-12-18T03:06:41;7.10;;;3.72;;
5077;SDS011;2557;51.390;7.494;2022-12-18T03:09:10;7.93;;;3.83;;
5077;SDS011;2557;51.390;7.494;2022-12-18T03:11:37;7.72;;;4.10;;
5077;SDS011;2557;51.390;7.494;2022-12-18T03:14:28;4.60;;;3.15;;
5077;SDS011;2557;51.390;7.494;2022-12-18T03:16:57;4.57;;;3.60;;
5077;SDS011;2557;51.390;7.494;2022-12-18T03:19:25;8.13;;;3.95;;
5077;SDS011;2557;51.390;7.494;2022-12-18T03:21:53;5.40;;;3.17;;
5077;SDS011;2557;51.390;7.494;2022-12-18T03:24:20;5.50;;;3.30;;
5077;SDS011;2557;51.390;7.494;2022-12-18T03:26:48;4.85;;;4.28;;
5077;SDS011;2557;51.390;7.494;2022-12-18T03:29:28;4.75;;;3.17;;
5077;SDS011;2557;51.390;7.494;2022-12-18T03:31:59;5.13;;;3.17;;
5077;SDS011;2557;51.390;7.494;2022-12-18T03:34:31;6.32;;;3.75;;
5077;SDS011;2557;51.390;7.494;2022-12-18T03:36:58;2.97;;;2.50;;
5077;SDS011;2557;51.390;7.494;2022-12-18T03:39:24;4.40;;;3.15;;
5077;SDS011;2557;51.390;7.494;2022-12-18T03:41:51;5.47;;;3.38;;
5077;SDS011;2557;51.390;7.494;2022-12-18T03:46:50;4.00;;;3.55;;
5077;SDS011;2557;51.390;7.494;2022-12-18T03:49:20;4.43;;;3.10;;
5077;SDS011;2557;51.390;7.494;2022-12-18T03:51:53;4.32;;;2.80;;
5077;SDS011;2557;51.390;7.494;2022-12-18T03:54:20;5.63;;;4.22;;
5077;SDS011;2557;51.390;7.494;2022-12-18T03:56:47;5.45;;;4.03;;
5077;SDS011;2557;51.390;7.494;2022-12-18T03:59:15;9.43;;;3.63;;
5077;SDS011;2557;51.390;7.494;2022-12-18T04:01:43;5.35;;;4.57;;
5077;SDS011;2557;51.390;7.494;2022-12-18T04:04:11;7.93;;;6.05;;
5077;SDS011;2557;51.390;7.494;2022-12-18T04:06:38;7.82;;;6.20;;
5077;SDS011;2557;51.390;7.494;2022-12-18T04:09:04;10.35;;;6.47;;
5077;SDS011;2557;51.390;7.494;2022-12-18T04:11:30;12.63;;;7.60;;
5077;SDS011;2557;51.390;7.494;2022-12-18T04:13:57;10.57;;;7.35;;
5077;SDS011;2557;51.390;7.494;2022-12-18T04:16:23;10.70;;;7.95;;
5077;SDS011;2557;51.390;7.494;2022-12-18T04:18:49;15.60;;;6.88;;
5077;SDS011;2557;51.390;7.494;2022-12-18T04:21:15;12.30;;;7.80;;
5077;SDS011;2557;51.390;7.494;2022-12-18T04:23:41;9.13;;;6.82;;
5077;SDS011;2557;51.390;7.494;2022-12-18T04:26:07;12.50;;;6.60;;
5077;SDS011;2557;51.390;7.494;2022-12-18T04:28:33;15.30;;;7.80;;
5077;SDS011;2557;51.390;7.494;2022-12-18T04:30:59;11.25;;;7.88;;
5077;SDS011;2557;51.390;7.494;2022-12-18T04:33:25;9.45;;;6.22;;
5077;SDS011;2557;51.390;7.494;2022-12-18T04:35:51;8.13;;;5.15;;
5077;SDS011;2557;51.390;7.494;2022-12-18T04:38:17;12.55;;;7.75;;
5077;SDS011;2557;51.390;7.494;2022-12-18T04:40:43;10.68;;;7.32;;
5077;SDS011;2557;51.390;7.494;2022-12-18T04:43:09;10.18;;;6.25;;
5077;SDS011;2557;51.390;7.494;2022-12-18T04:45:35;9.93;;;6.13;;
5077;SDS011;2557;51.390;7.494;2022-12-18T04:48:02;10.65;;;7.03;;
5077;SDS011;2557;51.390;7.494;2022-12-18T04:50:28;8.48;;;6.28;;
5077;SDS011;2557;51.390;7.494;2022-12-18T04:52:54;11.43;;;6.70;;
5077;SDS011;2557;51.390;7.494;2022-12-18T04:55:21;14.98;;;7.65;;
5077;SDS011;2557;51.390;7.494;2022-12-18T04:57:47;12.45;;;7.35;;
5077;SDS011;2557;51.390;7.494;2022-12-18T05:00:13;10.10;;;6.38;;
5077;SDS011;2557;51.390;7.494;2022-12-18T05:02:39;11.55;;;6.68;;
5077;SDS011;2557;51.390;7.494;2022-12-18T05:05:05;18.10;;;6.95;;
5077;SDS011;2557;51.390;7.494;2022-12-18T05:07:31;12.15;;;6.53;;
5077;SDS011;2557;51.390;7.494;2022-12-18T05:09:57;7.10;;;6.32;;
5077;SDS011;2557;51.390;7.494;2022-12-18T05:12:23;9.68;;;5.60;;
5077;SDS011;2557;51.390;7.494;2022-12-18T05:14:49;6.10;;;4.75;;
5077;SDS011;2557;51.390;7.494;2022-12-18T05:17:15;7.20;;;3.53;;
5077;SDS011;2557;51.390;7.494;2022-12-18T05:19:41;5.35;;;3.60;;
5077;SDS011;2557;51.390;7.494;2022-12-18T05:22:07;6.63;;;4.20;;
5077;SDS011;2557;51.390;7.494;2022-12-18T05:24:33;6.20;;;5.32;;
5077;SDS011;2557;51.390;7.494;2022-12-18T05:26:59;6.88;;;4.65;;
5077;SDS011;2557;51.390;7.494;2022-12-18T05:29:25;7.88;;;5.32;;
5077;SDS011;2557;51.390;7.494;2022-12-18T05:31:51;10.52;;;5.75;;
5077;SDS011;2557;51.390;7.494;2022-12-18T05:34:17;8.13;;;4.93;;
5077;SDS011;2557;51.390;7.494;2022-12-18T05:36:43;4.93;;;3.40;;
5077;SDS011;2557;51.390;7.494;2022-12-18T05:39:09;10.45;;;5.50;;
5077;SDS011;2557;51.390;7.494;2022-12-18T05:41:35;7.53;;;4.82;;
5077;SDS011;2557;51.390;7.494;2022-12-18T05:44:01;6.18;;;4.68;;
5077;SDS011;2557;51.390;7.494;2022-12-18T05:46:27;8.00;;;4.53;;
5077;SDS011;2557;51.390;7.494;2022-12-18T05:48:54;10.00;;;5.50;;
5077;SDS011;2557;51.390;7.494;2022-12-18T05:51:21;9.52;;;6.00;;
5077;SDS011;2557;51.390;7.494;2022-12-18T05:53:47;8.02;;;5.80;;
5077;SDS011;2557;51.390;7.494;2022-12-18T05:56:14;11.98;;;6.35;;
5077;SDS011;2557;51.390;7.494;2022-12-18T05:58:40;13.07;;;8.85;;
5077;SDS011;2557;51.390;7.494;2022-12-18T06:01:11;14.18;;;8.07;;
5077;SDS011;2557;51.390;7.494;2022-12-18T06:03:37;13.02;;;8.27;;
5077;SDS011;2557;51.390;7.494;2022-12-18T06:06:03;20.38;;;8.35;;
5077;SDS011;2557;51.390;7.494;2022-12-18T06:08:29;14.88;;;7.78;;
5077;SDS011;2557;51.390;7.494;2022-12-18T06:10:55;16.25;;;7.30;;
5077;SDS011;2557;51.390;7.494;2022-12-18T06:13:21;17.75;;;8.43;;
5077;SDS011;2557;51.390;7.494;2022-12-18T06:15:47;12.70;;;7.13;;
5077;SDS011;2557;51.390;7.494;2022-12-18T06:18:13;11.00;;;7.93;;
5077;SDS011;2557;51.390;7.494;2022-12-18T06:20:39;10.50;;;6.25;;
5077;SDS011;2557;51.390;7.494;2022-12-18T06:23:06;12.52;;;5.22;;
5077;SDS011;2557;51.390;7.494;2022-12-18T06:25:32;7.03;;;5.40;;
5077;SDS011;2557;51.390;7.494;2022-12-18T06:27:58;8.00;;;4.47;;
5077;SDS011;2557;51.390;7.494;2022-12-18T06:30:24;6.28;;;4.07;;
5077;SDS011;2557;51.390;7.494;2022-12-18T06:32:50;6.55;;;4.50;;
5077;SDS011;2557;51.390;7.494;2022-12-18T06:35:16;6.70;;;4.45;;
5077;SDS011;2557;51.390;7.494;2022-12-18T06:37:42;5.90;;;3.78;;
5077;SDS011;2557;51.390;7.494;2022-12-18T06:40:08;11.15;;;5.43;;
5077;SDS011;2557;51.390;7.494;2022-12-18T06:42:34;11.35;;;6.00;;
5077;SDS011;2557;51.390;7.494;2022-12-18T06:45:00;9.75;;;5.65;;
5077;SDS011;2557;51.390;7.494;2022-12-18T06:47:26;11.35;;;6.10;;
5077;SDS011;2557;51.390;7.494;2022-12-18T06:49:52;9.00;;;5.38;;
5077;SDS011;2557;51.390;7.494;2022-12-18T06:52:18;9.27;;;6.32;;
5077;SDS011;2557;51.390;7.494;2022-12-18T06:54:44;9.75;;;5.15;;
5077;SDS011;2557;51.390;7.494;2022-12-18T06:57:10;11.18;;;6.30;;
5077;SDS011;2557;51.390;7.494;2022-12-18T06:59:36;9.13;;;5.10;;
5077;SDS011;2557;51.390;7.494;2022-12-18T07:02:02;8.43;;;5.53;;
5077;SDS011;2557;51.390;7.494;2022-12-18T07:04:29;7.85;;;5.35;;
5077;SDS011;2557;51.390;7.494;2022-12-18T07:06:55;7.93;;;5.35;;
5077;SDS011;2557;51.390;7.494;2022-12-18T07:09:22;15.57;;;6.82;;
5077;SDS011;2557;51.390;7.494;2022-12-18T07:11:48;9.50;;;5.30;;
5077;SDS011;2557;51.390;7.494;2022-12-18T07:14:14;6.75;;;5.35;;
5077;SDS011;2557;51.390;7.494;2022-12-18T07:16:40;9.60;;;5.72;;
5077;SDS011;2557;51.390;7.494;2022-12-18T07:19:06;10.02;;;6.03;;
5077;SDS011;2557;51.390;7.494;2022-12-18T07:21:32;10.48;;;5.15;;
5077;SDS011;2557;51.390;7.494;2022-12-18T07:23:58;7.13;;;5.55;;
5077;SDS011;2557;51.390;7.494;2022-12-18T07:26:24;10.40;;;5.40;;
5077;SDS011;2557;51.390;7.494;2022-12-18T07:28:54;8.25;;;4.88;;
5077;SDS011;2557;51.390;7.494;2022-12-18T07:31:20;8.88;;;4.90;;
5077;SDS011;2557;51.390;7.494;2022-12-18T07:33:47;10.48;;;4.68;;
5077;SDS011;2557;51.390;7.494;2022-12-18T07:36:13;9.23;;;6.10;;
5077;SDS011;2557;51.390;7.494;2022-12-18T07:38:39;9.60;;;5.32;;
5077;SDS011;2557;51.390;7.494;2022-12-18T07:41:07;12.02;;;5.65;;
5077;SDS011;2557;51.390;7.494;2022-12-18T07:43:33;7.25;;;5.25;;
5077;SDS011;2557;51.390;7.494;2022-12-18T07:45:59;6.13;;;5.53;;
5077;SDS011;2557;51.390;7.494;2022-12-18T07:48:25;7.75;;;5.32;;
5077;SDS011;2557;51.390;7.494;2022-12-18T07:50:51;9.70;;;6.15;;
5077;SDS011;2557;51.390;7.494;2022-12-18T07:53:17;6.28;;;5.32;;
5077;SDS011;2557;51.390;7.494;2022-12-18T07:55:43;13.80;;;5.60;;
5077;SDS011;2557;51.390;7.494;2022-12-18T07:58:09;7.18;;;4.47;;
5077;SDS011;2557;51.390;7.494;2022-12-18T08:00:35;11.80;;;5.68;;
5077;SDS011;2557;51.390;7.494;2022-12-18T08:03:01;9.90;;;5.63;;
5077;SDS011;2557;51.390;7.494;2022-12-18T08:05:27;11.20;;;4.45;;
5077;SDS011;2557;51.390;7.494;2022-12-18T08:07:53;7.40;;;5.30;;
5077;SDS011;2557;51.390;7.494;2022-12-18T08:10:20;13.77;;;5.70;;
5077;SDS011;2557;51.390;7.494;2022-12-18T08:12:48;15.38;;;8.07;;
5077;SDS011;2557;51.390;7.494;2022-12-18T08:15:14;25.38;;;16.15;;
5077;SDS011;2557;51.390;7.494;2022-12-18T08:17:40;18.50;;;12.00;;
5077;SDS011;2557;51.390;7.494;2022-12-18T08:20:06;18.25;;;11.85;;
5077;SDS011;2557;51.390;7.494;2022-12-18T08:22:36;21.10;;;11.38;;
5077;SDS011;2557;51.390;7.494;2022-12-18T08:25:02;10.30;;;7.57;;
5077;SDS011;2557;51.390;7.494;2022-12-18T08:27:28;12.27;;;7.50;;
5077;SDS011;2557;51.390;7.494;2022-12-18T08:29:54;11.30;;;7.50;;
5077;SDS011;2557;51.390;7.494;2022-12-18T08:32:20;14.27;;;6.10;;
5077;SDS011;2557;51.390;7.494;2022-12-18T08:34:46;14.60;;;8.23;;
5077;SDS011;2557;51.390;7.494;2022-12-18T08:37:12;20.23;;;8.25;;
5077;SDS011;2557;51.390;7.494;2022-12-18T08:39:38;13.07;;;8.20;;
5077;SDS011;2557;51.390;7.494;2022-12-18T08:42:04;24.23;;;8.38;;
5077;SDS011;2557;51.390;7.494;2022-12-18T08:44:49;18.80;;;8.48;;
5077;SDS011;2557;51.390;7.494;2022-12-18T08:47:15;18.15;;;7.32;;
5077;SDS011;2557;51.390;7.494;2022-12-18T08:49:41;15.90;;;7.40;;
5077;SDS011;2557;51.390;7.494;2022-12-18T08:52:07;15.38;;;7.82;;
5077;SDS011;2557;51.390;7.494;2022-12-18T08:54:33;12.50;;;8.73;;
5077;SDS011;2557;51.390;7.494;2022-12-18T08:56:59;10.45;;;5.57;;
5077;SDS011;2557;51.390;7.494;2022-12-18T08:59:25;7.77;;;6.00;;
5077;SDS011;2557;51.390;7.494;2022-12-18T09:01:53;11.55;;;5.85;;
5077;SDS011;2557;51.390;7.494;2022-12-18T09:04:19;8.55;;;5.00;;
5077;SDS011;2557;51.390;7.494;2022-12-18T09:06:45;9.15;;;7.45;;
5077;SDS011;2557;51.390;7.494;2022-12-18T09:09:11;6.82;;;5.35;;
5077;SDS011;2557;51.390;7.494;2022-12-18T09:11:37;7.13;;;6.00;;
5077;SDS011;2557;51.390;7.494;2022-12-18T09:14:03;5.82;;;5.25;;
5077;SDS011;2557;51.390;7.494;2022-12-18T09:16:29;8.20;;;5.75;;
5077;SDS011;2557;51.390;7.494;2022-12-18T09:18:56;7.72;;;6.50;;
5077;SDS011;2557;51.390;7.494;2022-12-18T09:21:25;6.38;;;5.72;;
5077;SDS011;2557;51.390;7.494;2022-12-18T09:23:51;10.95;;;5.95;;
5077;SDS011;2557;51.390;7.494;2022-12-18T09:26:18;8.70;;;5.43;;
5077;SDS011;2557;51.390;7.494;2022-12-18T09:28:44;5.80;;;5.10;;
5077;SDS011;2557;51.390;7.494;2022-12-18T09:31:10;5.33;;;4.80;;
5077;SDS011;2557;51.390;7.494;2022-12-18T09:33:36;5.68;;;4.57;;
5077;SDS011;2557;51.390;7.494;2022-12-18T09:36:03;7.33;;;5.40;;
5077;SDS011;2557;51.390;7.494;2022-12-18T09:38:29;6.32;;;4.38;;
5077;SDS011;2557;51.390;7.494;2022-12-18T09:40:57;6.10;;;5.15;;
5077;SDS011;2557;51.390;7.494;2022-12-18T09:45:51;8.40;;;3.97;;
5077;SDS011;2557;51.390;7.494;2022-12-18T09:48:22;6.87;;;4.63;;
5077;SDS011;2557;51.390;7.494;2022-12-18T09:50:49;6.73;;;3.70;;
5077;SDS011;2557;51.390;7.494;2022-12-18T09:53:17;5.47;;;4.70;;
5077;SDS011;2557;51.390;7.494;2022-12-18T09:55:45;4.83;;;4.17;;
5077;SDS011;2557;51.390;7.494;2022-12-18T10:00:42;5.67;;;4.93;;
5077;SDS011;2557;51.390;7.494;2022-12-18T10:03:09;5.17;;;4.67;;
5077;SDS011;2557;51.390;7.494;2022-12-18T10:08:03;4.67;;;4.20;;
5077;SDS011;2557;51.390;7.494;2022-12-18T10:10:41;8.30;;;6.60;;
5077;SDS011;2557;51.390;7.494;2022-12-18T10:13:11;7.17;;;5.10;;
5077;SDS011;2557;51.390;7.494;2022-12-18T10:15:42;7.27;;;5.40;;
5077;SDS011;2557;51.390;7.494;2022-12-18T10:28:17;6.00;;;5.10;;
5077;SDS011;2557;51.390;7.494;2022-12-18T10:30:43;8.70;;;5.37;;
5077;SDS011;2557;51.390;7.494;2022-12-18T10:33:20;4.83;;;4.43;;
5077;SDS011;2557;51.390;7.494;2022-12-18T10:35:47;6.63;;;4.77;;
5077;SDS011;2557;51.390;7.494;2022-12-18T10:40:50;5.77;;;5.03;;
5077;SDS011;2557;51.390;7.494;2022-12-18T10:43:19;7.47;;;4.10;;
5077;SDS011;2557;51.390;7.494;2022-12-18T10:45:57;4.13;;;3.73;;
5077;SDS011;2557;51.390;7.494;2022-12-18T10:48:24;4.73;;;4.27;;
5077;SDS011;2557;51.390;7.494;2022-12-18T10:50:50;4.97;;;4.17;;
5077;SDS011;2557;51.390;7.494;2022-12-18T10:53:21;3.77;;;3.10;;
5077;SDS011;2557;51.390;7.494;2022-12-18T10:55:48;2.97;;;2.67;;
5077;SDS011;2557;51.390;7.494;2022-12-18T11:01:02;3.60;;;3.20;;
5077;SDS011;2557;51.390;7.494;2022-12-18T11:03:32;4.10;;;3.70;;
5077;SDS011;2557;51.390;7.494;2022-12-18T11:06:02;3.63;;;3.27;;
5077;SDS011;2557;51.390;7.494;2022-12-18T11:08:28;3.80;;;3.23;;
5077;SDS011;2557;51.390;7.494;2022-12-18T11:10:54;7.10;;;3.73;;
5077;SDS011;2557;51.390;7.494;2022-12-18T11:13:21;3.40;;;3.00;;
5077;SDS011;2557;51.390;7.494;2022-12-18T11:15:47;3.73;;;3.20;;
5077;SDS011;2557;51.390;7.494;2022-12-18T11:18:18;3.33;;;3.03;;
5077;SDS011;2557;51.390;7.494;2022-12-18T11:20:50;3.90;;;3.43;;
5077;SDS011;2557;51.390;7.494;2022-12-18T11:23:17;4.50;;;3.40;;
5077;SDS011;2557;51.390;7.494;2022-12-18T11:26:18;3.67;;;3.17;;
5077;SDS011;2557;51.390;7.494;2022-12-18T11:28:38;2.70;;;2.37;;
5077;SDS011;2557;51.390;7.494;2022-12-18T11:33:42;3.00;;;2.50;;
5077;SDS011;2557;51.390;7.494;2022-12-18T11:36:09;4.33;;;3.13;;
5077;SDS011;2557;51.390;7.494;2022-12-18T11:38:36;2.80;;;2.60;;
5077;SDS011;2557;51.390;7.494;2022-12-18T11:41:04;2.60;;;2.40;;
5077;SDS011;2557;51.390;7.494;2022-12-18T11:46:07;4.10;;;3.63;;
5077;SDS011;2557;51.390;7.494;2022-12-18T11:49:36;3.65;;;2.90;;
5077;SDS011;2557;51.390;7.494;2022-12-18T11:51:50;3.35;;;2.80;;
5077;SDS011;2557;51.390;7.494;2022-12-18T11:54:17;5.18;;;4.30;;
5077;SDS011;2557;51.390;7.494;2022-12-18T11:56:51;8.37;;;3.17;;
5077;SDS011;2557;51.390;7.494;2022-12-18T11:59:37;3.30;;;3.00;;
5077;SDS011;2557;51.390;7.494;2022-12-18T12:07:35;3.00;;;2.55;;
5077;SDS011;2557;51.390;7.494;2022-12-18T12:17:59;5.22;;;3.20;;
5077;SDS011;2557;51.390;7.494;2022-12-18T12:20:36;3.13;;;2.80;;
5077;SDS011;2557;51.390;7.494;2022-12-18T12:25:54;5.55;;;2.95;;
5077;SDS011;2557;51.390;7.494;2022-12-18T12:33:47;3.03;;;2.70;;
5077;SDS011;2557;51.390;7.494;2022-12-18T12:38:56;5.82;;;3.38;;
5077;SDS011;2557;51.390;7.494;2022-12-18T12:41:27;5.28;;;3.60;;
5077;SDS011;2557;51.390;7.494;2022-12-18T12:44:14;6.75;;;3.55;;
5077;SDS011;2557;51.390;7.494;2022-12-18T12:46:41;7.53;;;3.20;;
5077;SDS011;2557;51.390;7.494;2022-12-18T12:49:17;3.60;;;3.30;;
5077;SDS011;2557;51.390;7.494;2022-12-18T12:51:45;4.32;;;3.55;;
5077;SDS011;2557;51.390;7.494;2022-12-18T12:54:15;3.85;;;3.10;;
5077;SDS011;2557;51.390;7.494;2022-12-18T12:56:59;4.60;;;3.35;;
5077;SDS011;2557;51.390;7.494;2022-12-18T13:02:25;6.20;;;3.47;;
5077;SDS011;2557;51.390;7.494;2022-12-18T13:05:06;6.45;;;4.13;;
5077;SDS011;2557;51.390;7.494;2022-12-18T13:07:39;7.22;;;3.67;;
5077;SDS011;2557;51.390;7.494;2022-12-18T13:17:49;6.68;;;3.78;;
5077;SDS011;2557;51.390;7.494;2022-12-18T13:20:32;7.78;;;3.30;;
5077;SDS011;2557;51.390;7.494;2022-12-18T13:22:59;4.90;;;3.92;;
5077;SDS011;2557;51.390;7.494;2022-12-18T13:25:35;8.77;;;4.97;;
5077;SDS011;2557;51.390;7.494;2022-12-18T13:38:20;9.80;;;5.95;;
5077;SDS011;2557;51.390;7.494;2022-12-18T13:45:48;6.28;;;4.85;;
5077;SDS011;2557;51.390;7.494;2022-12-18T13:48:22;8.32;;;6.55;;
5077;SDS011;2557;51.390;7.494;2022-12-18T13:50:52;10.68;;;6.00;;
5077;SDS011;2557;51.390;7.494;2022-12-18T13:56:04;8.48;;;5.95;;
5077;SDS011;2557;51.390;7.494;2022-12-18T13:58:30;14.90;;;8.48;;
5077;SDS011;2557;51.390;7.494;2022-12-18T14:00:57;12.52;;;6.72;;
5077;SDS011;2557;51.390;7.494;2022-12-18T14:03:25;7.40;;;6.07;;
5077;SDS011;2557;51.390;7.494;2022-12-18T14:05:55;10.45;;;6.63;;
5077;SDS011;2557;51.390;7.494;2022-12-18T14:08:25;13.43;;;7.13;;
5077;SDS011;2557;51.390;7.494;2022-12-18T14:10:53;12.52;;;6.30;;
5077;SDS011;2557;51.390;7.494;2022-12-18T14:13:29;9.23;;;6.32;;
5077;SDS011;2557;51.390;7.494;2022-12-18T14:15:56;11.20;;;7.60;;
5077;SDS011;2557;51.390;7.494;2022-12-18T14:18:30;16.13;;;7.82;;
5077;SDS011;2557;51.390;7.494;2022-12-18T14:20:59;11.95;;;8.23;;
5077;SDS011;2557;51.390;7.494;2022-12-18T14:23:26;11.05;;;7.00;;
5077;SDS011;2557;51.390;7.494;2022-12-18T14:25:52;11.57;;;6.70;;
5077;SDS011;2557;51.390;7.494;2022-12-18T14:28:18;11.30;;;7.57;;
5077;SDS011;2557;51.390;7.494;2022-12-18T14:30:46;10.88;;;7.80;;
5077;SDS011;2557;51.390;7.494;2022-12-18T14:33:22;10.23;;;7.07;;
5077;SDS011;2557;51.390;7.494;2022-12-18T14:40:53;12.43;;;8.23;;
5077;SDS011;2557;51.390;7.494;2022-12-18T14:43:20;14.82;;;9.27;;
5077;SDS011;2557;51.390;7.494;2022-12-18T14:45:46;13.95;;;7.72;;
5077;SDS011;2557;51.390;7.494;2022-12-18T14:50:42;13.70;;;7.95;;
5077;SDS011;2557;51.390;7.494;2022-12-18T14:53:22;12.45;;;8.32;;
5077;SDS011;2557;51.390;7.494;2022-12-18T14:55:49;14.18;;;7.93;;
5077;SDS011;2557;51.390;7.494;2022-12-18T14:58:15;17.42;;;8.40;;
5077;SDS011;2557;51.390;7.494;2022-12-18T15:00:43;15.50;;;10.10;;
5077;SDS011;2557;51.390;7.494;2022-12-18T15:03:09;12.68;;;7.60;;
5077;SDS011;2557;51.390;7.494;2022-12-18T15:05:35;12.95;;;8.82;;
5077;SDS011;2557;51.390;7.494;2022-12-18T15:08:01;17.70;;;10.15;;
5077;SDS011;2557;51.390;7.494;2022-12-18T15:10:34;11.65;;;8.55;;
5077;SDS011;2557;51.390;7.494;2022-12-18T15:20:40;13.65;;;8.63;;
5077;SDS011;2557;51.390;7.494;2022-12-18T15:23:23;14.98;;;8.55;;
5077;SDS011;2557;51.390;7.494;2022-12-18T15:28:23;16.02;;;9.50;;
5077;SDS011;2557;51.390;7.494;2022-12-18T15:33:38;17.42;;;9.90;;
5077;SDS011;2557;51.390;7.494;2022-12-18T15:36:09;14.90;;;9.20;;
5077;SDS011;2557;51.390;7.494;2022-12-18T15:38:35;17.85;;;8.35;;
5077;SDS011;2557;51.390;7.494;2022-12-18T15:41:02;18.77;;;9.60;;
5077;SDS011;2557;51.390;7.494;2022-12-18T15:43:28;20.40;;;9.88;;
5077;SDS011;2557;51.390;7.494;2022-12-18T15:46:01;14.07;;;9.02;;
5077;SDS011;2557;51.390;7.494;2022-12-18T15:48:27;19.42;;;11.25;;
5077;SDS011;2557;51.390;7.494;2022-12-18T15:50:53;17.88;;;11.05;;
5077;SDS011;2557;51.390;7.494;2022-12-18T15:53:22;15.13;;;10.57;;
5077;SDS011;2557;51.390;7.494;2022-12-18T15:55:48;17.30;;;11.32;;
5077;SDS011;2557;51.390;7.494;2022-12-18T15:58:32;14.38;;;9.85;;
5077;SDS011;2557;51.390;7.494;2022-12-18T16:00:59;18.75;;;10.23;;
5077;SDS011;2557;51.390;7.494;2022-12-18T16:03:26;17.35;;;10.13;;
5077;SDS011;2557;51.390;7.494;2022-12-18T16:05:52;22.08;;;11.13;;
5077;SDS011;2557;51.390;7.494;2022-12-18T16:08:18;16.35;;;10.48;;
5077;SDS011;2557;51.390;7.494;2022-12-18T16:10:44;15.43;;;10.07;;
5077;SDS011;2557;51.390;7.494;2022-12-18T16:13:10;24.25;;;12.20;;
5077;SDS011;2557;51.390;7.494;2022-12-18T16:15:38;20.73;;;10.85;;
5077;SDS011;2557;51.390;7.494;2022-12-18T16:18:04;20.73;;;10.90;;
5077;SDS011;2557;51.390;7.494;2022-12-18T16:20:30;21.70;;;12.00;;
5077;SDS011;2557;51.390;7.494;2022-12-18T16:22:56;25.30;;;11.83;;
5077;SDS011;2557;51.390;7.494;2022-12-18T16:25:23;21.08;;;12.07;;
5077;SDS011;2557;51.390;7.494;2022-12-18T16:27:49;22.60;;;12.32;;
5077;SDS011;2557;51.390;7.494;2022-12-18T16:30:18;21.70;;;11.30;;
5077;SDS011;2557;51.390;7.494;2022-12-18T16:32:44;19.83;;;11.02;;
5077;SDS011;2557;51.390;7.494;2022-12-18T16:35:14;20.67;;;11.25;;
5077;SDS011;2557;51.390;7.494;2022-12-18T16:37:40;22.98;;;11.95;;
5077;SDS011;2557;51.390;7.494;2022-12-18T16:40:07;22.25;;;12.07;;
5077;SDS011;2557;51.390;7.494;2022-12-18T16:42:35;26.52;;;12.43;;
5077;SDS011;2557;51.390;7.494;2022-12-18T16:45:01;25.10;;;14.27;;
5077;SDS011;2557;51.390;7.494;2022-12-18T16:47:27;22.60;;;12.13;;
5077;SDS011;2557;51.390;7.494;2022-12-18T16:49:53;22.15;;;12.43;;
5077;SDS011;2557;51.390;7.494;2022-12-18T16:52:19;18.07;;;11.03;;
5077;SDS011;2557;51.390;7.494;2022-12-18T16:54:46;27.17;;;13.48;;
5077;SDS011;2557;51.390;7.494;2022-12-18T16:57:12;24.42;;;12.52;;
5077;SDS011;2557;51.390;7.494;2022-12-18T16:59:38;28.38;;;15.18;;
5077;SDS011;2557;51.390;7.494;2022-12-18T17:02:05;22.65;;;12.23;;
5077;SDS011;2557;51.390;7.494;2022-12-18T17:04:31;26.92;;;15.85;;
5077;SDS011;2557;51.390;7.494;2022-12-18T17:06:58;30.48;;;14.85;;
5077;SDS011;2557;51.390;7.494;2022-12-18T17:09:24;23.30;;;12.07;;
5077;SDS011;2557;51.390;7.494;2022-12-18T17:11:50;22.58;;;13.23;;